createdAt,value
2018-10-06T00:00:15.117Z,11.02
2018-10-06T00:01:15.134Z,11.04
2018-10-06T00:02:15.151Z,11.09
2018-10-06T00:03:15.172Z,11.07
2018-10-06T00:04:15.182Z,11.02
2018-10-06T00:05:15.226Z,11.06
2018-10-06T00:06:15.214Z,11.17
2018-10-06T00:07:15.230Z,11.06
2018-10-06T00:08:15.245Z,11.04
2018-10-06T00:09:15.259Z,11.00
2018-10-06T00:10:15.282Z,10.96
2018-10-06T00:11:15.294Z,11.14
2018-10-06T00:12:15.308Z,10.96
2018-10-06T00:13:15.324Z,11.00
2018-10-06T00:14:15.342Z,11.04
2018-10-06T00:15:15.359Z,11.11
2018-10-06T00:16:15.375Z,11.03
2018-10-06T00:17:15.392Z,11.04
2018-10-06T00:18:15.409Z,10.89
2018-10-06T00:19:15.424Z,11.04
2018-10-06T00:20:15.442Z,11.04
2018-10-06T00:21:15.453Z,11.02
2018-10-06T00:22:15.472Z,11.02
2018-10-06T00:23:15.486Z,10.94
2018-10-06T00:24:15.502Z,10.92
2018-10-06T00:25:15.519Z,10.91
2018-10-06T00:26:15.536Z,11.03
2018-10-06T00:27:15.551Z,10.94
2018-10-06T00:28:15.568Z,10.86
2018-10-06T00:29:15.588Z,10.94
2018-10-06T00:30:15.598Z,10.91
2018-10-06T00:31:15.618Z,10.97
2018-10-06T00:32:15.632Z,10.92
2018-10-06T00:33:15.648Z,10.97
2018-10-06T00:34:15.663Z,10.97
2018-10-06T00:35:15.689Z,10.96
2018-10-06T00:36:15.695Z,10.94
2018-10-06T00:37:15.710Z,10.88
2018-10-06T00:38:15.728Z,10.92
2018-10-06T00:39:15.744Z,10.88
2018-10-06T00:40:15.766Z,10.91
2018-10-06T00:41:15.780Z,10.97
2018-10-06T00:42:15.793Z,10.97
2018-10-06T00:43:15.809Z,10.86
2018-10-06T00:44:15.822Z,10.94
2018-10-06T00:45:15.837Z,10.88
2018-10-06T00:46:15.856Z,10.88
2018-10-06T00:47:15.921Z,10.86
2018-10-06T00:48:15.885Z,10.89
2018-10-06T00:49:15.903Z,10.84
2018-10-06T00:50:15.918Z,10.88
2018-10-06T00:51:15.935Z,10.86
2018-10-06T00:52:15.951Z,10.82
2018-10-06T00:53:15.967Z,10.89
2018-10-06T00:54:15.985Z,10.84
2018-10-06T00:55:16.002Z,10.85
2018-10-06T00:56:16.016Z,10.82
2018-10-06T00:57:16.030Z,10.81
2018-10-06T00:58:16.044Z,10.84
2018-10-06T00:59:16.063Z,10.85
2018-10-06T01:00:16.077Z,10.86
2018-10-06T01:01:16.093Z,10.82
2018-10-06T01:02:16.114Z,10.88
2018-10-06T01:03:16.125Z,10.84
2018-10-06T01:04:16.141Z,10.85
2018-10-06T01:05:16.159Z,10.82
2018-10-06T01:06:16.172Z,10.81
2018-10-06T01:07:16.190Z,10.92
2018-10-06T01:08:16.205Z,10.86
2018-10-06T01:09:16.219Z,10.84
2018-10-06T01:10:16.239Z,10.88
2018-10-06T01:11:16.255Z,10.76
2018-10-06T01:12:16.273Z,10.74
2018-10-06T01:13:16.284Z,10.81
2018-10-06T01:14:16.298Z,10.84
2018-10-06T01:15:16.316Z,10.82
2018-10-06T01:16:16.331Z,10.85
2018-10-06T01:17:16.347Z,10.78
2018-10-06T01:18:16.365Z,10.86
2018-10-06T01:19:16.379Z,10.89
2018-10-06T01:20:16.392Z,10.82
2018-10-06T01:21:16.412Z,10.76
2018-10-06T01:22:16.425Z,10.82
2018-10-06T01:23:16.443Z,10.68
2018-10-06T01:24:16.461Z,10.68
2018-10-06T01:25:16.476Z,10.60
2018-10-06T01:26:16.489Z,10.59
2018-10-06T01:27:16.507Z,10.51
2018-10-06T01:28:16.523Z,10.61
2018-10-06T01:29:16.536Z,10.59
2018-10-06T01:30:16.551Z,10.61
2018-10-06T01:31:16.567Z,10.56
2018-10-06T01:32:16.588Z,10.56
2018-10-06T01:33:16.604Z,10.64
2018-10-06T01:34:16.615Z,10.68
2018-10-06T01:35:16.631Z,10.67
2018-10-06T01:36:16.645Z,10.63
2018-10-06T01:37:16.663Z,10.70
2018-10-06T01:38:16.678Z,10.81
2018-10-06T01:39:16.694Z,10.76
2018-10-06T01:40:16.708Z,10.73
2018-10-06T01:41:16.724Z,10.81
2018-10-06T01:42:16.742Z,10.79
2018-10-06T01:43:16.758Z,10.81
2018-10-06T01:44:16.771Z,10.79
2018-10-06T01:45:16.791Z,10.79
2018-10-06T01:46:16.804Z,10.79
2018-10-06T01:47:16.819Z,10.74
2018-10-06T01:48:16.835Z,10.81
2018-10-06T01:49:16.854Z,10.79
2018-10-06T01:50:16.868Z,10.79
2018-10-06T01:51:16.883Z,10.81
2018-10-06T01:52:16.899Z,10.76
2018-10-06T01:53:16.913Z,10.81
2018-10-06T01:54:16.927Z,10.85
2018-10-06T01:55:16.946Z,10.85
2018-10-06T01:56:16.961Z,10.82
2018-10-06T01:57:16.977Z,10.96
2018-10-06T01:58:16.992Z,10.92
2018-10-06T01:59:17.008Z,10.94
2018-10-06T02:00:17.023Z,10.92
2018-10-06T02:01:17.037Z,10.92
2018-10-06T02:02:17.058Z,10.89
2018-10-06T02:03:17.072Z,10.94
2018-10-06T02:04:17.092Z,10.96
2018-10-06T02:05:17.102Z,11.00
2018-10-06T02:06:17.119Z,11.02
2018-10-06T02:07:17.135Z,10.99
2018-10-06T02:08:17.151Z,10.96
2018-10-06T02:09:17.167Z,10.91
2018-10-06T02:10:17.184Z,11.07
2018-10-06T02:11:17.198Z,10.97
2018-10-06T02:12:17.218Z,10.94
2018-10-06T02:13:17.230Z,10.94
2018-10-06T02:14:17.246Z,11.03
2018-10-06T02:15:17.263Z,10.96
2018-10-06T02:16:17.280Z,10.94
2018-10-06T02:17:17.293Z,10.97
2018-10-06T02:18:17.310Z,10.91
2018-10-06T02:19:17.327Z,10.85
2018-10-06T02:20:17.339Z,11.02
2018-10-06T02:21:17.358Z,10.96
2018-10-06T02:22:17.373Z,10.89
2018-10-06T02:23:17.387Z,11.00
2018-10-06T02:24:17.404Z,10.91
2018-10-06T02:25:17.420Z,10.91
2018-10-06T02:26:17.436Z,10.97
2018-10-06T02:27:17.453Z,11.00
2018-10-06T02:28:17.468Z,11.03
2018-10-06T02:29:17.486Z,11.00
2018-10-06T02:30:17.619Z,11.02
2018-10-06T02:31:17.516Z,10.99
2018-10-06T02:32:17.536Z,11.03
2018-10-06T02:33:17.549Z,11.04
2018-10-06T02:34:17.566Z,11.03
2018-10-06T02:35:17.579Z,10.96
2018-10-06T02:36:17.595Z,11.00
2018-10-06T02:37:17.613Z,11.02
2018-10-06T02:38:17.631Z,10.99
2018-10-06T02:39:17.646Z,10.94
2018-10-06T02:40:17.660Z,10.99
2018-10-06T02:41:17.676Z,11.02
2018-10-06T02:42:17.693Z,11.04
2018-10-06T02:43:17.712Z,10.97
2018-10-06T02:44:17.724Z,10.94
2018-10-06T02:45:17.742Z,11.00
2018-10-06T02:46:17.758Z,10.96
2018-10-06T02:47:17.774Z,10.97
2018-10-06T02:48:17.790Z,10.92
2018-10-06T02:49:17.804Z,10.91
2018-10-06T02:50:17.821Z,10.94
2018-10-06T02:51:17.835Z,10.94
2018-10-06T02:52:17.851Z,10.97
2018-10-06T02:53:17.869Z,10.92
2018-10-06T02:54:17.882Z,10.89
2018-10-06T02:55:17.899Z,11.02
2018-10-06T02:56:17.920Z,10.94
2018-10-06T02:57:17.931Z,10.96
2018-10-06T02:58:17.947Z,10.91
2018-10-06T02:59:17.966Z,10.94
2018-10-06T03:00:17.982Z,10.96
2018-10-06T03:01:17.995Z,10.92
2018-10-06T03:02:18.014Z,10.96
2018-10-06T03:03:18.027Z,10.99
2018-10-06T03:04:18.043Z,10.99
2018-10-06T03:05:18.057Z,10.96
2018-10-06T03:06:18.075Z,10.96
2018-10-06T03:07:18.091Z,10.88
2018-10-06T03:08:18.105Z,10.89
2018-10-06T03:09:18.122Z,10.97
2018-10-06T03:10:18.140Z,10.84
2018-10-06T03:11:18.153Z,10.85
2018-10-06T03:12:18.169Z,10.82
2018-10-06T03:13:18.193Z,10.76
2018-10-06T03:14:18.208Z,10.81
2018-10-06T03:15:18.218Z,10.78
2018-10-06T03:16:18.234Z,10.82
2018-10-06T03:17:18.257Z,10.76
2018-10-06T03:18:18.267Z,10.79
2018-10-06T03:19:18.283Z,10.74
2018-10-06T03:20:18.300Z,10.68
2018-10-06T03:21:18.313Z,10.66
2018-10-06T03:22:18.331Z,10.82
2018-10-06T03:23:18.348Z,10.79
2018-10-06T03:24:18.362Z,10.81
2018-10-06T03:25:18.389Z,10.76
2018-10-06T03:26:18.396Z,10.78
2018-10-06T03:27:18.411Z,10.81
2018-10-06T03:28:18.426Z,10.81
2018-10-06T03:29:18.448Z,10.82
2018-10-06T03:30:18.456Z,10.79
2018-10-06T03:31:18.477Z,10.81
2018-10-06T03:32:18.489Z,10.79
2018-10-06T03:33:18.506Z,10.79
2018-10-06T03:34:18.520Z,10.84
2018-10-06T03:35:18.536Z,10.86
2018-10-06T03:36:18.551Z,10.86
2018-10-06T03:37:18.569Z,10.91
2018-10-06T03:38:18.584Z,10.89
2018-10-06T03:39:18.606Z,10.82
2018-10-06T03:40:18.613Z,10.86
2018-10-06T03:41:18.634Z,10.82
2018-10-06T03:42:18.651Z,10.86
2018-10-06T03:43:18.664Z,10.85
2018-10-06T03:44:18.678Z,10.82
2018-10-06T03:45:18.695Z,10.84
2018-10-06T03:46:18.711Z,10.89
2018-10-06T03:47:18.729Z,10.88
2018-10-06T03:48:18.743Z,10.86
2018-10-06T03:49:18.759Z,10.91
2018-10-06T03:50:18.776Z,10.91
2018-10-06T03:51:18.792Z,10.92
2018-10-06T03:52:18.808Z,10.97
2018-10-06T03:53:18.821Z,10.97
2018-10-06T03:54:18.837Z,10.89
2018-10-06T03:55:18.855Z,10.92
2018-10-06T03:56:18.875Z,10.96
2018-10-06T03:57:18.886Z,10.91
2018-10-06T03:58:18.900Z,10.88
2018-10-06T03:59:18.920Z,10.96
2018-10-06T04:00:18.933Z,10.97
2018-10-06T04:01:18.949Z,10.91
2018-10-06T04:02:18.965Z,10.97
2018-10-06T04:03:18.980Z,10.92
2018-10-06T04:04:18.998Z,10.86
2018-10-06T04:05:19.015Z,10.96
2018-10-06T04:06:19.034Z,10.85
2018-10-06T04:07:19.045Z,10.92
2018-10-06T04:08:19.060Z,10.88
2018-10-06T04:09:19.078Z,10.89
2018-10-06T04:10:19.093Z,10.86
2018-10-06T04:11:19.108Z,10.86
2018-10-06T04:12:19.134Z,10.81
2018-10-06T04:13:19.141Z,10.84
2018-10-06T04:14:19.155Z,10.85
2018-10-06T04:15:19.175Z,10.84
2018-10-06T04:16:19.186Z,10.84
2018-10-06T04:17:19.205Z,10.82
2018-10-06T04:18:19.220Z,10.82
2018-10-06T04:19:19.238Z,10.82
2018-10-06T04:20:19.251Z,10.84
2018-10-06T04:21:19.266Z,10.82
2018-10-06T04:22:19.283Z,10.78
2018-10-06T04:23:19.299Z,10.70
2018-10-06T04:24:19.313Z,10.61
2018-10-06T04:25:19.331Z,10.61
2018-10-06T04:26:19.347Z,10.70
2018-10-06T04:27:19.365Z,10.70
2018-10-06T04:28:19.406Z,10.66
2018-10-06T04:29:19.394Z,10.56
2018-10-06T04:30:19.412Z,10.61
2018-10-06T04:31:19.427Z,10.60
2018-10-06T04:32:19.442Z,10.61
2018-10-06T04:33:19.458Z,10.66
2018-10-06T04:34:19.483Z,10.61
2018-10-06T04:35:19.492Z,10.53
2018-10-06T04:36:19.504Z,10.59
2018-10-06T04:37:19.522Z,10.59
2018-10-06T04:38:19.537Z,10.63
2018-10-06T04:39:19.553Z,10.64
2018-10-06T04:40:19.567Z,10.60
2018-10-06T04:41:19.591Z,10.56
2018-10-06T04:42:19.600Z,10.56
2018-10-06T04:43:19.616Z,10.55
2018-10-06T04:44:19.633Z,10.60
2018-10-06T04:45:19.646Z,10.66
2018-10-06T04:46:19.662Z,10.70
2018-10-06T04:47:19.681Z,10.59
2018-10-06T04:48:19.706Z,10.56
2018-10-06T04:49:19.710Z,10.59
2018-10-06T04:50:19.728Z,10.61
2018-10-06T04:51:19.743Z,10.55
2018-10-06T04:52:19.763Z,10.60
2018-10-06T04:53:19.842Z,10.61
2018-10-06T04:54:19.792Z,10.60
2018-10-06T04:55:19.808Z,10.68
2018-10-06T04:56:19.819Z,10.64
2018-10-06T04:57:19.836Z,10.68
2018-10-06T04:58:19.856Z,10.71
2018-10-06T04:59:19.868Z,10.66
2018-10-06T05:00:19.884Z,10.67
2018-10-06T05:01:19.904Z,10.61
2018-10-06T05:02:19.918Z,10.61
2018-10-06T05:03:20.005Z,10.68
2018-10-06T05:04:19.947Z,10.56
2018-10-06T05:05:19.967Z,10.60
2018-10-06T05:06:19.977Z,10.59
2018-10-06T05:07:19.995Z,10.61
2018-10-06T05:08:20.007Z,10.66
2018-10-06T05:09:20.023Z,10.60
2018-10-06T05:10:20.043Z,10.60
2018-10-06T05:11:20.059Z,10.60
2018-10-06T05:12:20.075Z,10.59
2018-10-06T05:13:20.088Z,10.68
2018-10-06T05:14:20.105Z,10.59
2018-10-06T05:15:20.130Z,10.59
2018-10-06T05:16:20.134Z,10.70
2018-10-06T05:17:20.151Z,10.68
2018-10-06T05:18:20.164Z,10.66
2018-10-06T05:19:20.182Z,10.64
2018-10-06T05:20:20.199Z,10.66
2018-10-06T05:21:20.214Z,10.66
2018-10-06T05:22:20.231Z,10.63
2018-10-06T05:23:20.317Z,10.64
2018-10-06T05:24:20.264Z,10.67
2018-10-06T05:25:20.276Z,10.64
2018-10-06T05:26:20.291Z,10.70
2018-10-06T05:27:20.308Z,10.60
2018-10-06T05:28:20.324Z,10.64
2018-10-06T05:29:20.338Z,10.74
2018-10-06T05:30:20.360Z,10.70
2018-10-06T05:31:20.378Z,10.63
2018-10-06T05:32:20.388Z,10.68
2018-10-06T05:33:20.401Z,10.67
2018-10-06T05:34:20.418Z,10.71
2018-10-06T05:35:20.433Z,10.59
2018-10-06T05:36:20.449Z,10.68
2018-10-06T05:37:20.465Z,10.70
2018-10-06T05:38:20.485Z,10.67
2018-10-06T05:39:20.500Z,10.67
2018-10-06T05:40:20.511Z,10.64
2018-10-06T05:41:20.529Z,10.61
2018-10-06T05:42:20.543Z,10.67
2018-10-06T05:43:20.561Z,10.70
2018-10-06T05:44:20.576Z,10.63
2018-10-06T05:45:20.593Z,10.70
2018-10-06T05:46:20.651Z,10.66
2018-10-06T05:47:20.620Z,10.66
2018-10-06T05:48:20.637Z,10.66
2018-10-06T05:49:20.652Z,10.64
2018-10-06T05:50:20.673Z,10.67
2018-10-06T05:51:20.684Z,10.61
2018-10-06T05:52:20.701Z,10.70
2018-10-06T05:53:20.715Z,10.66
2018-10-06T05:54:20.731Z,10.66
2018-10-06T05:55:20.747Z,10.63
2018-10-06T05:56:20.763Z,10.70
2018-10-06T05:57:20.780Z,10.68
2018-10-06T05:58:20.798Z,10.71
2018-10-06T05:59:20.810Z,10.70
2018-10-06T06:00:20.824Z,10.70
2018-10-06T06:01:20.842Z,10.68
2018-10-06T06:02:20.856Z,10.78
2018-10-06T06:03:20.874Z,10.73
2018-10-06T06:04:20.887Z,10.76
2018-10-06T06:05:20.905Z,10.70
2018-10-06T06:06:20.921Z,10.76
2018-10-06T06:07:20.938Z,10.81
2018-10-06T06:08:20.960Z,10.73
2018-10-06T06:09:21.046Z,10.73
2018-10-06T06:10:20.983Z,10.84
2018-10-06T06:11:21.001Z,10.81
2018-10-06T06:12:21.015Z,10.86
2018-10-06T06:13:21.030Z,10.86
2018-10-06T06:14:21.048Z,10.88
2018-10-06T06:15:21.062Z,10.89
2018-10-06T06:16:21.079Z,10.89
2018-10-06T06:17:21.095Z,10.91
2018-10-06T06:18:21.111Z,10.94
2018-10-06T06:19:21.125Z,10.91
2018-10-06T06:20:21.140Z,10.86
2018-10-06T06:21:21.160Z,10.88
2018-10-06T06:22:21.177Z,11.02
2018-10-06T06:23:21.193Z,11.00
2018-10-06T06:24:21.204Z,11.03
2018-10-06T06:25:21.219Z,10.99
2018-10-06T06:26:21.236Z,11.06
2018-10-06T06:27:21.254Z,11.02
2018-10-06T06:28:21.267Z,10.94
2018-10-06T06:29:21.283Z,11.02
2018-10-06T06:30:21.300Z,10.96
2018-10-06T06:31:21.397Z,10.86
2018-10-06T06:32:21.356Z,10.74
2018-10-06T06:33:21.348Z,10.85
2018-10-06T06:34:21.363Z,10.79
2018-10-06T06:35:21.378Z,10.64
2018-10-06T06:36:21.398Z,10.70
2018-10-06T06:37:21.411Z,10.64
2018-10-06T06:38:21.500Z,10.70
2018-10-06T06:39:21.443Z,10.59
2018-10-06T06:40:21.455Z,10.59
2018-10-06T06:41:21.474Z,10.68
2018-10-06T06:42:21.489Z,10.66
2018-10-06T06:43:21.509Z,10.68
2018-10-06T06:44:21.652Z,10.84
2018-10-06T06:45:21.536Z,10.82
2018-10-06T06:46:21.552Z,10.84
2018-10-06T06:47:21.566Z,10.89
2018-10-06T06:48:21.582Z,10.97
2018-10-06T06:49:21.599Z,11.03
2018-10-06T06:50:21.615Z,10.99
2018-10-06T06:51:21.634Z,11.03
2018-10-06T06:52:21.647Z,11.14
2018-10-06T06:53:21.662Z,11.00
2018-10-06T06:54:21.679Z,11.07
2018-10-06T06:55:21.695Z,11.00
2018-10-06T06:56:21.712Z,11.03
2018-10-06T06:57:21.727Z,10.94
2018-10-06T06:58:21.743Z,11.00
2018-10-06T06:59:21.758Z,11.03
2018-10-06T07:00:21.777Z,11.04
2018-10-06T07:01:21.789Z,11.11
2018-10-06T07:02:21.808Z,11.15
2018-10-06T07:03:21.823Z,11.18
2018-10-06T07:04:21.839Z,11.15
2018-10-06T07:05:21.851Z,11.10
2018-10-06T07:06:21.870Z,11.17
2018-10-06T07:07:21.887Z,11.14
2018-10-06T07:08:21.902Z,11.14
2018-10-06T07:09:21.918Z,11.14
2018-10-06T07:10:21.935Z,11.15
2018-10-06T07:11:21.948Z,11.04
2018-10-06T07:12:21.965Z,11.14
2018-10-06T07:13:21.982Z,11.07
2018-10-06T07:14:21.996Z,11.11
2018-10-06T07:15:22.015Z,11.18
2018-10-06T07:16:22.026Z,11.21
2018-10-06T07:17:22.045Z,11.33
2018-10-06T07:18:22.125Z,11.33
2018-10-06T07:19:22.077Z,11.40
2018-10-06T07:20:22.091Z,11.55
2018-10-06T07:21:22.106Z,11.36
2018-10-06T07:22:22.125Z,11.36
2018-10-06T07:23:22.139Z,11.25
2018-10-06T07:24:22.154Z,11.07
2018-10-06T07:25:22.185Z,11.14
2018-10-06T07:26:22.188Z,11.04
2018-10-06T07:27:22.201Z,11.10
2018-10-06T07:28:22.252Z,11.07
2018-10-06T07:29:22.236Z,10.96
2018-10-06T07:30:22.252Z,11.02
2018-10-06T07:31:22.268Z,11.09
2018-10-06T07:32:22.282Z,11.24
2018-10-06T07:33:22.298Z,11.35
2018-10-06T07:34:22.316Z,11.40
2018-10-06T07:35:22.330Z,11.49
2018-10-06T07:36:22.345Z,11.47
2018-10-06T07:37:22.362Z,11.37
2018-10-06T07:38:22.380Z,11.43
2018-10-06T07:39:22.393Z,11.40
2018-10-06T07:40:22.407Z,11.35
2018-10-06T07:41:22.427Z,11.37
2018-10-06T07:42:22.443Z,11.28
2018-10-06T07:43:22.457Z,11.06
2018-10-06T07:44:22.470Z,11.09
2018-10-06T07:45:22.487Z,10.99
2018-10-06T07:46:22.505Z,11.02
2018-10-06T07:47:22.520Z,11.00
2018-10-06T07:48:22.534Z,10.96
2018-10-06T07:49:22.555Z,10.97
2018-10-06T07:50:22.572Z,10.97
2018-10-06T07:51:22.583Z,10.91
2018-10-06T07:52:22.600Z,10.89
2018-10-06T07:53:22.615Z,10.89
2018-10-06T07:54:22.630Z,11.09
2018-10-06T07:55:22.653Z,11.02
2018-10-06T07:56:22.663Z,11.02
2018-10-06T07:57:22.678Z,11.03
2018-10-06T07:58:22.697Z,11.06
2018-10-06T07:59:22.749Z,11.09
2018-10-06T08:00:22.724Z,11.18
2018-10-06T08:01:22.740Z,11.11
2018-10-06T08:02:22.756Z,11.09
2018-10-06T08:03:22.772Z,11.10
2018-10-06T08:04:22.786Z,11.06
2018-10-06T08:05:22.803Z,11.02
2018-10-06T08:06:22.855Z,10.99
2018-10-06T08:07:22.835Z,11.03
2018-10-06T08:08:22.852Z,11.10
2018-10-06T08:09:22.869Z,11.10
2018-10-06T08:10:22.883Z,11.15
2018-10-06T08:11:22.899Z,11.07
2018-10-06T08:12:22.912Z,11.17
2018-10-06T08:13:22.928Z,11.19
2018-10-06T08:14:22.945Z,11.36
2018-10-06T08:15:22.960Z,11.40
2018-10-06T08:16:22.980Z,11.43
2018-10-06T08:17:22.993Z,11.51
2018-10-06T08:18:23.008Z,11.44
2018-10-06T08:19:23.024Z,11.47
2018-10-06T08:20:23.038Z,11.44
2018-10-06T08:21:23.055Z,11.35
2018-10-06T08:22:23.072Z,11.47
2018-10-06T08:23:23.087Z,11.52
2018-10-06T08:24:23.102Z,11.57
2018-10-06T08:25:23.118Z,11.65
2018-10-06T08:26:23.135Z,11.72
2018-10-06T08:27:23.150Z,11.75
2018-10-06T08:28:23.167Z,11.83
2018-10-06T08:29:23.189Z,11.72
2018-10-06T08:30:23.199Z,11.67
2018-10-06T08:31:23.215Z,11.69
2018-10-06T08:32:23.232Z,11.96
2018-10-06T08:33:23.247Z,12.07
2018-10-06T08:34:23.263Z,12.27
2018-10-06T08:35:23.289Z,12.28
2018-10-06T08:36:23.294Z,12.53
2018-10-06T08:37:23.309Z,12.50
2018-10-06T08:38:23.325Z,12.52
2018-10-06T08:39:23.343Z,12.46
2018-10-06T08:40:23.358Z,12.35
2018-10-06T08:41:23.375Z,12.38
2018-10-06T08:42:23.390Z,12.46
2018-10-06T08:43:23.410Z,12.49
2018-10-06T08:44:23.426Z,12.31
2018-10-06T08:45:23.441Z,12.32
2018-10-06T08:46:23.456Z,12.37
2018-10-06T08:47:23.473Z,12.41
2018-10-06T08:48:23.492Z,11.96
2018-10-06T08:49:23.506Z,11.99
2018-10-06T08:50:23.521Z,12.12
2018-10-06T08:51:23.540Z,12.21
2018-10-06T08:52:23.552Z,12.38
2018-10-06T08:53:23.568Z,12.59
2018-10-06T08:54:23.586Z,12.65
2018-10-06T08:55:23.603Z,12.89
2018-10-06T08:56:23.645Z,13.32
2018-10-06T08:57:23.635Z,13.29
2018-10-06T08:58:23.653Z,13.45
2018-10-06T08:59:23.668Z,13.71
2018-10-06T09:00:23.685Z,13.57
2018-10-06T09:01:23.702Z,13.64
2018-10-06T09:02:23.717Z,13.54
2018-10-06T09:03:23.735Z,13.26
2018-10-06T09:04:23.802Z,13.07
2018-10-06T09:05:23.767Z,13.08
2018-10-06T09:06:23.786Z,13.00
2018-10-06T09:07:23.801Z,12.82
2018-10-06T09:08:23.816Z,12.90
2018-10-06T09:09:23.835Z,12.95
2018-10-06T09:10:23.849Z,12.92
2018-10-06T09:11:23.865Z,12.67
2018-10-06T09:12:23.882Z,12.64
2018-10-06T09:13:23.904Z,12.47
2018-10-06T09:14:23.915Z,12.38
2018-10-06T09:15:23.945Z,12.56
2018-10-06T09:16:23.948Z,12.54
2018-10-06T09:17:23.963Z,12.62
2018-10-06T09:18:23.978Z,12.74
2018-10-06T09:19:23.998Z,12.72
2018-10-06T09:20:24.016Z,13.07
2018-10-06T09:21:24.030Z,13.04
2018-10-06T09:22:24.047Z,12.93
2018-10-06T09:23:24.067Z,13.23
2018-10-06T09:24:24.082Z,13.26
2018-10-06T09:25:24.097Z,13.30
2018-10-06T09:26:24.114Z,13.38
2018-10-06T09:27:24.131Z,13.73
2018-10-06T09:28:24.151Z,13.48
2018-10-06T09:29:24.164Z,13.30
2018-10-06T09:30:24.184Z,13.25
2018-10-06T09:31:24.197Z,13.07
2018-10-06T09:32:24.214Z,13.19
2018-10-06T09:33:24.228Z,12.87
2018-10-06T09:34:24.247Z,13.08
2018-10-06T09:35:24.263Z,13.33
2018-10-06T09:36:24.281Z,13.73
2018-10-06T09:37:24.298Z,14.61
2018-10-06T09:38:24.311Z,14.94
2018-10-06T09:39:24.331Z,15.29
2018-10-06T09:40:24.346Z,14.24
2018-10-06T09:41:24.366Z,14.54
2018-10-06T09:42:24.410Z,15.25
2018-10-06T09:43:24.397Z,15.68
2018-10-06T09:44:24.414Z,15.93
2018-10-06T09:45:24.429Z,16.09
2018-10-06T09:46:24.449Z,16.41
2018-10-06T09:47:24.467Z,16.30
2018-10-06T09:48:24.485Z,15.96
2018-10-06T09:49:24.498Z,15.97
2018-10-06T09:50:24.517Z,15.86
2018-10-06T09:51:24.535Z,15.59
2018-10-06T09:52:24.557Z,15.14
2018-10-06T09:53:24.572Z,13.48
2018-10-06T09:54:24.587Z,13.38
2018-10-06T09:55:24.607Z,13.42
2018-10-06T09:56:24.623Z,13.39
2018-10-06T09:57:24.641Z,13.10
2018-10-06T09:58:24.657Z,13.25
2018-10-06T09:59:24.744Z,13.14
2018-10-06T10:00:24.695Z,13.07
2018-10-06T10:01:24.710Z,12.96
2018-10-06T10:02:24.728Z,13.04
2018-10-06T10:03:24.743Z,13.20
2018-10-06T10:04:24.813Z,13.29
2018-10-06T10:05:24.834Z,13.23
2018-10-06T10:06:24.797Z,13.30
2018-10-06T10:07:24.814Z,13.48
2018-10-06T10:08:24.830Z,13.71
2018-10-06T10:09:24.860Z,13.73
2018-10-06T10:10:24.867Z,13.95
2018-10-06T10:11:24.883Z,13.99
2018-10-06T10:12:24.959Z,14.10
2018-10-06T10:13:24.916Z,14.10
2018-10-06T10:14:24.935Z,14.04
2018-10-06T10:15:24.997Z,14.15
2018-10-06T10:16:24.969Z,14.18
2018-10-06T10:17:25.060Z,14.32
2018-10-06T10:18:25.265Z,14.18
2018-10-06T10:19:25.021Z,14.33
2018-10-06T10:20:25.041Z,14.42
2018-10-06T10:21:25.055Z,14.22
2018-10-06T10:22:25.298Z,13.95
2018-10-06T10:23:25.116Z,13.97
2018-10-06T10:24:25.109Z,13.85
2018-10-06T10:25:25.126Z,13.88
2018-10-06T10:26:25.145Z,13.85
2018-10-06T10:27:25.160Z,13.85
2018-10-06T10:28:25.205Z,13.88
2018-10-06T10:29:25.195Z,14.14
2018-10-06T10:30:25.214Z,13.97
2018-10-06T10:31:25.230Z,14.17
2018-10-06T10:32:25.248Z,14.24
2018-10-06T10:33:25.268Z,14.12
2018-10-06T10:34:25.318Z,14.47
2018-10-06T10:35:25.299Z,14.51
2018-10-06T10:36:25.321Z,14.50
2018-10-06T10:37:25.391Z,14.36
2018-10-06T10:38:25.350Z,14.20
2018-10-06T10:39:25.467Z,14.27
2018-10-06T10:40:25.386Z,14.28
2018-10-06T10:41:25.404Z,14.28
2018-10-06T10:42:25.420Z,14.29
2018-10-06T10:43:25.440Z,14.14
2018-10-06T10:44:25.536Z,14.10
2018-10-06T10:45:25.475Z,14.02
2018-10-06T10:46:25.502Z,14.07
2018-10-06T10:47:25.510Z,14.17
2018-10-06T10:48:25.625Z,14.35
2018-10-06T10:49:25.565Z,14.42
2018-10-06T10:50:25.565Z,14.51
2018-10-06T10:51:25.583Z,14.51
2018-10-06T10:52:25.596Z,14.51
2018-10-06T10:53:25.617Z,14.40
2018-10-06T10:54:25.781Z,14.45
2018-10-06T10:55:25.707Z,14.62
2018-10-06T10:56:25.671Z,14.57
2018-10-06T10:57:25.683Z,14.68
2018-10-06T10:58:25.704Z,14.62
2018-10-06T10:59:25.889Z,14.73
2018-10-06T11:00:25.739Z,14.86
2018-10-06T11:01:25.757Z,14.81
2018-10-06T11:02:25.772Z,14.45
2018-10-06T11:03:25.794Z,14.47
2018-10-06T11:04:25.809Z,14.52
2018-10-06T11:05:25.826Z,14.57
2018-10-06T11:06:25.844Z,14.65
2018-10-06T11:07:25.871Z,14.80
2018-10-06T11:08:25.881Z,14.83
2018-10-06T11:09:25.896Z,14.80
2018-10-06T11:10:25.920Z,14.77
2018-10-06T11:11:26.016Z,14.80
2018-10-06T11:12:25.952Z,15.07
2018-10-06T11:13:25.973Z,15.02
2018-10-06T11:14:25.987Z,14.95
2018-10-06T11:15:26.006Z,14.83
2018-10-06T11:16:26.023Z,14.77
2018-10-06T11:17:26.043Z,14.77
2018-10-06T11:18:26.059Z,14.75
2018-10-06T11:19:26.079Z,14.45
2018-10-06T11:20:26.096Z,14.37
2018-10-06T11:21:26.113Z,14.25
2018-10-06T11:22:26.138Z,14.29
2018-10-06T11:23:26.149Z,14.17
2018-10-06T11:24:26.167Z,14.35
2018-10-06T11:25:26.185Z,14.42
2018-10-06T11:26:26.203Z,14.50
2018-10-06T11:27:26.224Z,14.51
2018-10-06T11:28:26.239Z,14.50
2018-10-06T11:29:26.257Z,14.47
2018-10-06T11:30:26.276Z,14.28
2018-10-06T11:31:26.296Z,14.24
2018-10-06T11:32:26.314Z,14.20
2018-10-06T11:33:26.336Z,13.88
2018-10-06T11:34:26.349Z,14.02
2018-10-06T11:35:26.370Z,14.02
2018-10-06T11:36:26.383Z,14.14
2018-10-06T11:37:26.508Z,14.32
2018-10-06T11:38:26.420Z,14.37
2018-10-06T11:39:26.450Z,14.42
2018-10-06T11:40:26.457Z,14.42
2018-10-06T11:41:26.473Z,14.55
2018-10-06T11:42:26.492Z,14.47
2018-10-06T11:43:26.511Z,14.28
2018-10-06T11:44:26.528Z,14.47
2018-10-06T11:45:26.551Z,14.58
2018-10-06T11:46:26.565Z,14.37
2018-10-06T11:47:26.588Z,14.39
2018-10-06T11:48:26.600Z,14.22
2018-10-06T11:49:26.618Z,14.22
2018-10-06T11:50:26.746Z,14.28
2018-10-06T11:51:26.655Z,14.43
2018-10-06T11:52:26.671Z,14.54
2018-10-06T11:53:26.691Z,14.43
2018-10-06T11:54:26.710Z,14.68
2018-10-06T11:55:26.737Z,14.86
2018-10-06T11:56:26.749Z,14.57
2018-10-06T11:57:26.764Z,14.46
2018-10-06T11:58:26.784Z,14.32
2018-10-06T11:59:26.801Z,14.42
2018-10-06T12:00:26.929Z,14.37
2018-10-06T12:01:26.838Z,14.54
2018-10-06T12:02:26.855Z,14.60
2018-10-06T12:03:26.875Z,14.65
2018-10-06T12:04:26.892Z,14.78
2018-10-06T12:05:26.913Z,14.80
2018-10-06T12:06:26.930Z,14.70
2018-10-06T12:07:26.946Z,14.45
2018-10-06T12:08:26.966Z,13.89
2018-10-06T12:09:26.983Z,13.51
2018-10-06T12:10:27.006Z,13.45
2018-10-06T12:11:27.021Z,13.54
2018-10-06T12:12:27.050Z,13.69
2018-10-06T12:13:27.056Z,13.79
2018-10-06T12:14:27.076Z,13.91
2018-10-06T12:15:27.094Z,14.00
2018-10-06T12:16:27.112Z,13.95
2018-10-06T12:17:27.128Z,13.75
2018-10-06T12:18:27.148Z,13.70
2018-10-06T12:19:27.167Z,13.84
2018-10-06T12:20:27.246Z,13.73
2018-10-06T12:21:27.202Z,13.77
2018-10-06T12:22:27.220Z,13.66
2018-10-06T12:23:27.240Z,13.59
2018-10-06T12:24:27.260Z,13.45
2018-10-06T12:25:27.274Z,13.48
2018-10-06T12:26:27.293Z,13.57
2018-10-06T12:27:27.311Z,13.42
2018-10-06T12:28:27.329Z,13.49
2018-10-06T12:29:27.348Z,13.51
2018-10-06T12:30:27.364Z,13.46
2018-10-06T12:31:27.383Z,13.46
2018-10-06T12:32:27.401Z,13.49
2018-10-06T12:33:27.419Z,13.66
2018-10-06T12:34:27.436Z,13.81
2018-10-06T12:35:27.557Z,13.79
2018-10-06T12:36:27.477Z,13.75
2018-10-06T12:37:27.491Z,13.57
2018-10-06T12:38:27.508Z,13.66
2018-10-06T12:39:27.530Z,13.33
2018-10-06T12:40:27.546Z,13.17
2018-10-06T12:41:27.562Z,13.30
2018-10-06T12:42:27.578Z,13.41
2018-10-06T12:43:27.700Z,13.51
2018-10-06T12:44:27.616Z,13.69
2018-10-06T12:45:27.636Z,13.79
2018-10-06T12:46:27.652Z,13.71
2018-10-06T12:47:27.671Z,13.62
2018-10-06T12:48:27.789Z,13.28
2018-10-06T12:49:27.706Z,13.38
2018-10-06T12:50:27.726Z,13.28
2018-10-06T12:51:27.756Z,13.30
2018-10-06T12:52:27.762Z,13.29